RYR61LJ LEPA-LEZL
Flight info
| Callsign | RYR61LJ |
|---|---|
| Flight time | 1h 17m |
| Altitude | 35000 |
| Route | BAVER DCT GERVU DCT ALT DCT RESTU DCT TOSGA DCT ROLAS DCT UNTOS DCT RIXUR DCT MGA M744 MAR |
| Aircraft | B738/M-SDE3FGILRWY/SB1 |
Departure
| Time | 2026-04-26 06:35 |
|---|---|
| Airport | Palma de Mallorca Airport (LEPA) |
Arrival
| Time | 2026-04-26 07:53 |
|---|---|
| Airport | Seville Airport (LEZL) |
| Time | Latitude | Longitude | Altitude | Speed | Heading |
|---|---|---|---|---|---|
| 2026-04-26 06:05 | 39.55132 | 2.72970 | 36 ft | 0 kts | 162° |
| 2026-04-26 06:26 | 39.55137 | 2.72968 | 37 ft | 2 kts | 162° |
| 2026-04-26 06:26 | 39.55156 | 2.72960 | 35 ft | 3 kts | 162° |
| 2026-04-26 06:26 | 39.55173 | 2.72952 | 35 ft | 3 kts | 153° |
| 2026-04-26 06:26 | 39.55188 | 2.72939 | 35 ft | 3 kts | 115° |
| 2026-04-26 06:27 | 39.55190 | 2.72917 | 36 ft | 3 kts | 71° |
| 2026-04-26 06:27 | 39.55182 | 2.72896 | 33 ft | 2 kts | 59° |
| 2026-04-26 06:27 | 39.55176 | 2.72883 | 36 ft | 3 kts | 59° |
| 2026-04-26 06:27 | 39.55170 | 2.72870 | 36 ft | 0 kts | 59° |
| 2026-04-26 06:29 | 39.55172 | 2.72874 | 36 ft | 2 kts | 59° |
| 2026-04-26 06:30 | 39.55187 | 2.72906 | 35 ft | 6 kts | 59° |
| 2026-04-26 06:30 | 39.55217 | 2.72971 | 37 ft | 11 kts | 59° |
| 2026-04-26 06:30 | 39.55264 | 2.73066 | 36 ft | 14 kts | 57° |
| 2026-04-26 06:30 | 39.55322 | 2.73189 | 36 ft | 18 kts | 59° |
| 2026-04-26 06:31 | 39.55390 | 2.73335 | 36 ft | 20 kts | 58° |
| 2026-04-26 06:31 | 39.55461 | 2.73483 | 35 ft | 15 kts | 58° |
| 2026-04-26 06:31 | 39.55519 | 2.73569 | 37 ft | 12 kts | 3° |
| 2026-04-26 06:31 | 39.55589 | 2.73524 | 37 ft | 11 kts | 329° |
| 2026-04-26 06:32 | 39.55661 | 2.73519 | 37 ft | 11 kts | 45° |
| 2026-04-26 06:32 | 39.55703 | 2.73604 | 37 ft | 11 kts | 59° |
| 2026-04-26 06:32 | 39.55748 | 2.73701 | 37 ft | 14 kts | 58° |
| 2026-04-26 06:32 | 39.55804 | 2.73817 | 37 ft | 14 kts | 58° |
| 2026-04-26 06:33 | 39.55840 | 2.73892 | 37 ft | 8 kts | 58° |
| 2026-04-26 06:33 | 39.55860 | 2.73918 | 37 ft | 1 kts | 12° |
| 2026-04-26 06:33 | 39.55868 | 2.73915 | 37 ft | 1 kts | 347° |
| 2026-04-26 06:33 | 39.55886 | 2.73905 | 37 ft | 4 kts | 330° |
| 2026-04-26 06:34 | 39.55924 | 2.73873 | 37 ft | 9 kts | 327° |
| 2026-04-26 06:34 | 39.55981 | 2.73816 | 37 ft | 12 kts | 306° |
| 2026-04-26 06:34 | 39.55961 | 2.73707 | 37 ft | 15 kts | 236° |
| 2026-04-26 06:34 | 39.55860 | 2.73509 | 36 ft | 49 kts | 237° |
| 2026-04-26 06:35 | 39.55549 | 2.72844 | 36 ft | 122 kts | 239° |
| 2026-04-26 06:35 | 39.55008 | 2.71687 | 124 ft | 171 kts | 238° |
| 2026-04-26 06:35 | 39.54367 | 2.70368 | 882 ft | 174 kts | 237° |
| 2026-04-26 06:35 | 39.53686 | 2.69041 | 1673 ft | 179 kts | 235° |
| 2026-04-26 06:36 | 39.52985 | 2.67698 | 2390 ft | 187 kts | 234° |
| 2026-04-26 06:36 | 39.52251 | 2.66251 | 3030 ft | 198 kts | 236° |
| 2026-04-26 06:36 | 39.51461 | 2.64683 | 3399 ft | 222 kts | 236° |
| 2026-04-26 06:36 | 39.50596 | 2.62965 | 3856 ft | 232 kts | 236° |
| 2026-04-26 06:37 | 39.49703 | 2.61195 | 4462 ft | 237 kts | 236° |
| 2026-04-26 06:37 | 39.48791 | 2.59394 | 5198 ft | 240 kts | 235° |
| 2026-04-26 06:37 | 39.47877 | 2.57596 | 6059 ft | 238 kts | 235° |
| 2026-04-26 06:37 | 39.46964 | 2.55801 | 6835 ft | 240 kts | 236° |
| 2026-04-26 06:38 | 39.46042 | 2.53992 | 7551 ft | 242 kts | 236° |
| 2026-04-26 06:38 | 39.45108 | 2.52151 | 8185 ft | 251 kts | 236° |
| 2026-04-26 06:38 | 39.44120 | 2.50186 | 8423 ft | 277 kts | 236° |
| 2026-04-26 06:38 | 39.43040 | 2.48031 | 8915 ft | 291 kts | 237° |
| 2026-04-26 06:39 | 39.41931 | 2.45818 | 9673 ft | 295 kts | 237° |
| 2026-04-26 06:39 | 39.40810 | 2.43582 | 10439 ft | 299 kts | 237° |
| 2026-04-26 06:39 | 39.39639 | 2.41250 | 10688 ft | 322 kts | 237° |
| 2026-04-26 06:39 | 39.38386 | 2.38755 | 11047 ft | 338 kts | 236° |
| 2026-04-26 06:40 | 39.37092 | 2.36182 | 11667 ft | 344 kts | 236° |
| 2026-04-26 06:40 | 39.35781 | 2.33576 | 12427 ft | 347 kts | 236° |
| 2026-04-26 06:40 | 39.34460 | 2.30953 | 13209 ft | 350 kts | 236° |
| 2026-04-26 06:40 | 39.33140 | 2.28335 | 13963 ft | 354 kts | 236° |
| 2026-04-26 06:41 | 39.31789 | 2.25656 | 14660 ft | 358 kts | 236° |
| 2026-04-26 06:41 | 39.30421 | 2.22948 | 15387 ft | 361 kts | 236° |
| 2026-04-26 06:41 | 39.29040 | 2.20215 | 16099 ft | 365 kts | 236° |
| 2026-04-26 06:41 | 39.27644 | 2.17455 | 16815 ft | 369 kts | 235° |
| 2026-04-26 06:42 | 39.26228 | 2.14659 | 17511 ft | 374 kts | 235° |
| 2026-04-26 06:42 | 39.24799 | 2.11838 | 18213 ft | 378 kts | 235° |
| 2026-04-26 06:42 | 39.23354 | 2.08988 | 18838 ft | 382 kts | 235° |
| 2026-04-26 06:42 | 39.21893 | 2.06109 | 19472 ft | 385 kts | 235° |
| 2026-04-26 06:43 | 39.20444 | 2.03257 | 20114 ft | 387 kts | 235° |
| 2026-04-26 06:43 | 39.18964 | 2.00344 | 20737 ft | 390 kts | 235° |
| 2026-04-26 06:43 | 39.17473 | 1.97415 | 21344 ft | 393 kts | 235° |
| 2026-04-26 06:43 | 39.15975 | 1.94451 | 21935 ft | 396 kts | 237° |
| 2026-04-26 06:44 | 39.14882 | 1.91175 | 22481 ft | 402 kts | 253° |
| 2026-04-26 06:44 | 39.14143 | 1.87690 | 23096 ft | 405 kts | 254° |
| 2026-04-26 06:44 | 39.13430 | 1.84170 | 23654 ft | 408 kts | 254° |
| 2026-04-26 06:44 | 39.12711 | 1.80619 | 24110 ft | 412 kts | 254° |
| 2026-04-26 06:45 | 39.11987 | 1.77092 | 24563 ft | 414 kts | 254° |
| 2026-04-26 06:45 | 39.11237 | 1.73493 | 25034 ft | 417 kts | 254° |
| 2026-04-26 06:45 | 39.10472 | 1.69878 | 25474 ft | 420 kts | 253° |
| 2026-04-26 06:45 | 39.09698 | 1.66247 | 25917 ft | 423 kts | 253° |
| 2026-04-26 06:46 | 39.08911 | 1.62583 | 26359 ft | 425 kts | 253° |
| 2026-04-26 06:46 | 39.08118 | 1.58900 | 26786 ft | 428 kts | 253° |
| 2026-04-26 06:46 | 39.07318 | 1.55196 | 27204 ft | 431 kts | 253° |
| 2026-04-26 06:46 | 39.06512 | 1.51469 | 27623 ft | 434 kts | 253° |
| 2026-04-26 06:47 | 39.05709 | 1.47762 | 28015 ft | 437 kts | 253° |
| 2026-04-26 06:47 | 39.04890 | 1.43989 | 28415 ft | 440 kts | 253° |
| 2026-04-26 06:47 | 39.04065 | 1.40191 | 28820 ft | 442 kts | 253° |
| 2026-04-26 06:47 | 39.03233 | 1.36371 | 29206 ft | 445 kts | 253° |
| 2026-04-26 06:48 | 39.02396 | 1.32528 | 29573 ft | 448 kts | 253° |
| 2026-04-26 06:48 | 39.01551 | 1.28662 | 29958 ft | 450 kts | 253° |
| 2026-04-26 06:48 | 39.00704 | 1.24787 | 30381 ft | 450 kts | 253° |
| 2026-04-26 06:48 | 38.99858 | 1.20927 | 30833 ft | 448 kts | 253° |
| 2026-04-26 06:49 | 38.99014 | 1.17084 | 31274 ft | 447 kts | 253° |
| 2026-04-26 06:49 | 38.98169 | 1.13242 | 31655 ft | 447 kts | 253° |
| 2026-04-26 06:49 | 38.97334 | 1.09449 | 32019 ft | 447 kts | 253° |
| 2026-04-26 06:49 | 38.96487 | 1.05610 | 32412 ft | 446 kts | 253° |
| 2026-04-26 06:50 | 38.95639 | 1.01778 | 32816 ft | 446 kts | 253° |
| 2026-04-26 06:50 | 38.94791 | 0.97948 | 33197 ft | 445 kts | 253° |
| 2026-04-26 06:50 | 38.93944 | 0.94128 | 33549 ft | 445 kts | 253° |
| 2026-04-26 06:50 | 38.93094 | 0.90301 | 33923 ft | 445 kts | 253° |
| 2026-04-26 06:51 | 38.92244 | 0.86481 | 34267 ft | 445 kts | 253° |
| 2026-04-26 06:51 | 38.90546 | 0.78871 | 34957 ft | 442 kts | 253° |
| 2026-04-26 06:51 | 38.89709 | 0.75126 | 35151 ft | 444 kts | 253° |
| 2026-04-26 06:52 | 38.87991 | 0.67474 | 35145 ft | 446 kts | 253° |
| 2026-04-26 06:52 | 38.85800 | 0.60111 | 35143 ft | 439 kts | 246° |
| 2026-04-26 06:53 | 38.83429 | 0.52887 | 35152 ft | 440 kts | 248° |
| 2026-04-26 06:53 | 38.80831 | 0.45791 | 35139 ft | 440 kts | 237° |
| 2026-04-26 06:54 | 38.77464 | 0.39296 | 35141 ft | 441 kts | 235° |
| 2026-04-26 06:54 | 38.74013 | 0.32789 | 35145 ft | 442 kts | 235° |
| 2026-04-26 06:55 | 38.70580 | 0.26245 | 35146 ft | 443 kts | 236° |
| 2026-04-26 06:55 | 38.67160 | 0.19677 | 35146 ft | 444 kts | 236° |
| 2026-04-26 06:56 | 38.63754 | 0.13134 | 35145 ft | 445 kts | 236° |
| 2026-04-26 06:56 | 38.60319 | 0.06549 | 35143 ft | 445 kts | 236° |
| 2026-04-26 06:57 | 38.56876 | -0.00037 | 35143 ft | 446 kts | 236° |
| 2026-04-26 06:57 | 38.53425 | -0.06622 | 35136 ft | 446 kts | 236° |
| 2026-04-26 06:58 | 38.49972 | -0.13198 | 35130 ft | 446 kts | 236° |
| 2026-04-26 06:58 | 38.46542 | -0.19719 | 35127 ft | 446 kts | 236° |
| 2026-04-26 06:59 | 38.43081 | -0.26284 | 35121 ft | 445 kts | 236° |
| 2026-04-26 06:59 | 38.39620 | -0.32836 | 35125 ft | 445 kts | 236° |
| 2026-04-26 07:00 | 38.36180 | -0.39335 | 35127 ft | 445 kts | 236° |
| 2026-04-26 07:00 | 38.32713 | -0.45874 | 35131 ft | 445 kts | 236° |
| 2026-04-26 07:01 | 38.29240 | -0.52413 | 35131 ft | 446 kts | 236° |
| 2026-04-26 07:01 | 38.25948 | -0.59093 | 35121 ft | 446 kts | 244° |
| 2026-04-26 07:02 | 38.23798 | -0.65044 | 35124 ft | 446 kts | 246° |
| 2026-04-26 07:02 | 38.20858 | -0.73425 | 35127 ft | 447 kts | 246° |
| 2026-04-26 07:03 | 38.18291 | -0.80625 | 35128 ft | 447 kts | 246° |
| 2026-04-26 07:03 | 38.15698 | -0.87808 | 35124 ft | 447 kts | 246° |
| 2026-04-26 07:04 | 38.13534 | -0.93775 | 35131 ft | 448 kts | 246° |
| 2026-04-26 07:04 | 38.10502 | -1.02115 | 35140 ft | 448 kts | 246° |
| 2026-04-26 07:05 | 38.07887 | -1.09295 | 35149 ft | 448 kts | 246° |
| 2026-04-26 07:05 | 38.05712 | -1.15252 | 35155 ft | 448 kts | 246° |
| 2026-04-26 07:06 | 38.02651 | -1.23618 | 35160 ft | 447 kts | 246° |
| 2026-04-26 07:06 | 38.00473 | -1.29558 | 35156 ft | 447 kts | 246° |
| 2026-04-26 07:07 | 37.97851 | -1.36691 | 35154 ft | 446 kts | 246° |
| 2026-04-26 07:07 | 37.95245 | -1.43764 | 35152 ft | 446 kts | 246° |
| 2026-04-26 07:08 | 37.92620 | -1.50877 | 35151 ft | 445 kts | 246° |
| 2026-04-26 07:08 | 37.89990 | -1.57978 | 35139 ft | 445 kts | 246° |
| 2026-04-26 07:09 | 37.87351 | -1.65055 | 35139 ft | 445 kts | 246° |
| 2026-04-26 07:09 | 37.84707 | -1.72127 | 35132 ft | 444 kts | 246° |
| 2026-04-26 07:11 | 37.78122 | -1.89686 | 35138 ft | 442 kts | 246° |
| 2026-04-26 07:11 | 37.75479 | -1.96707 | 35134 ft | 442 kts | 246° |
| 2026-04-26 07:12 | 37.72834 | -2.03716 | 35138 ft | 442 kts | 246° |
| 2026-04-26 07:12 | 37.70203 | -2.10676 | 35140 ft | 442 kts | 245° |
| 2026-04-26 07:13 | 37.67552 | -2.17668 | 35129 ft | 442 kts | 245° |
| 2026-04-26 07:13 | 37.64899 | -2.24657 | 35139 ft | 441 kts | 245° |
| 2026-04-26 07:14 | 37.62250 | -2.31616 | 35138 ft | 440 kts | 245° |
| 2026-04-26 07:14 | 37.59613 | -2.38527 | 35134 ft | 440 kts | 245° |
| 2026-04-26 07:15 | 37.56961 | -2.45470 | 35135 ft | 439 kts | 245° |
| 2026-04-26 07:15 | 37.54308 | -2.52400 | 35136 ft | 439 kts | 245° |
| 2026-04-26 07:16 | 37.51652 | -2.59326 | 35135 ft | 439 kts | 245° |
| 2026-04-26 07:16 | 37.49009 | -2.66199 | 35132 ft | 438 kts | 245° |
| 2026-04-26 07:17 | 37.46351 | -2.73100 | 35132 ft | 438 kts | 245° |
| 2026-04-26 07:17 | 37.43689 | -2.79998 | 35130 ft | 438 kts | 245° |
| 2026-04-26 07:18 | 37.41022 | -2.86889 | 35135 ft | 438 kts | 245° |
| 2026-04-26 07:18 | 37.38353 | -2.93778 | 35128 ft | 438 kts | 245° |
| 2026-04-26 07:19 | 37.35703 | -3.00607 | 35131 ft | 438 kts | 245° |
| 2026-04-26 07:19 | 37.33031 | -3.07481 | 35122 ft | 437 kts | 245° |
| 2026-04-26 07:20 | 37.30359 | -3.14338 | 35116 ft | 435 kts | 245° |
| 2026-04-26 07:20 | 37.27720 | -3.21100 | 35109 ft | 427 kts | 245° |
| 2026-04-26 07:21 | 37.25108 | -3.27777 | 35129 ft | 426 kts | 245° |
| 2026-04-26 07:21 | 37.23807 | -3.31085 | 34947 ft | 418 kts | 245° |
| 2026-04-26 07:21 | 37.22536 | -3.34309 | 34483 ft | 418 kts | 245° |
| 2026-04-26 07:21 | 37.21243 | -3.37585 | 33874 ft | 421 kts | 245° |
| 2026-04-26 07:22 | 37.19941 | -3.40882 | 33423 ft | 418 kts | 245° |
| 2026-04-26 07:22 | 37.18673 | -3.44085 | 33458 ft | 404 kts | 245° |
| 2026-04-26 07:22 | 37.17427 | -3.47235 | 33340 ft | 406 kts | 245° |
| 2026-04-26 07:22 | 37.16155 | -3.50452 | 33067 ft | 416 kts | 245° |
| 2026-04-26 07:23 | 37.14861 | -3.53721 | 32818 ft | 420 kts | 245° |
| 2026-04-26 07:23 | 37.13566 | -3.56988 | 32550 ft | 417 kts | 245° |
| 2026-04-26 07:23 | 37.12278 | -3.60229 | 32286 ft | 413 kts | 245° |
| 2026-04-26 07:23 | 37.11004 | -3.63433 | 32026 ft | 410 kts | 245° |
| 2026-04-26 07:24 | 37.09753 | -3.66574 | 31772 ft | 406 kts | 245° |
| 2026-04-26 07:24 | 37.08496 | -3.69727 | 31515 ft | 404 kts | 245° |
| 2026-04-26 07:24 | 37.07245 | -3.72861 | 31269 ft | 401 kts | 245° |
| 2026-04-26 07:24 | 37.06003 | -3.75971 | 31020 ft | 399 kts | 245° |
| 2026-04-26 07:25 | 37.04764 | -3.79070 | 30777 ft | 397 kts | 245° |
| 2026-04-26 07:25 | 37.03531 | -3.82152 | 30529 ft | 395 kts | 245° |
| 2026-04-26 07:25 | 37.02303 | -3.85221 | 30290 ft | 394 kts | 245° |
| 2026-04-26 07:25 | 37.01076 | -3.88283 | 30018 ft | 393 kts | 245° |
| 2026-04-26 07:26 | 36.99870 | -3.91291 | 29742 ft | 392 kts | 245° |
| 2026-04-26 07:26 | 36.98650 | -3.94329 | 29462 ft | 391 kts | 245° |
| 2026-04-26 07:26 | 36.97430 | -3.97366 | 29182 ft | 390 kts | 245° |
| 2026-04-26 07:26 | 36.96214 | -4.00388 | 28919 ft | 389 kts | 245° |
| 2026-04-26 07:27 | 36.94999 | -4.03407 | 28634 ft | 388 kts | 245° |
| 2026-04-26 07:27 | 36.93786 | -4.06415 | 28371 ft | 387 kts | 245° |
| 2026-04-26 07:27 | 36.92575 | -4.09420 | 28101 ft | 386 kts | 244° |
| 2026-04-26 07:27 | 36.91367 | -4.12412 | 27836 ft | 385 kts | 245° |
| 2026-04-26 07:28 | 36.90178 | -4.15353 | 27569 ft | 384 kts | 244° |
| 2026-04-26 07:28 | 36.88977 | -4.18323 | 27322 ft | 382 kts | 244° |
| 2026-04-26 07:28 | 36.87779 | -4.21282 | 27068 ft | 381 kts | 244° |
| 2026-04-26 07:28 | 36.86587 | -4.24225 | 26805 ft | 379 kts | 244° |
| 2026-04-26 07:29 | 36.85398 | -4.27159 | 26553 ft | 378 kts | 244° |
| 2026-04-26 07:29 | 36.84213 | -4.30079 | 26305 ft | 376 kts | 244° |
| 2026-04-26 07:29 | 36.83038 | -4.32986 | 26055 ft | 374 kts | 247° |
| 2026-04-26 07:29 | 36.82356 | -4.36072 | 25782 ft | 369 kts | 268° |
| 2026-04-26 07:30 | 36.82544 | -4.39231 | 25551 ft | 363 kts | 285° |
| 2026-04-26 07:30 | 36.83452 | -4.42090 | 25322 ft | 358 kts | 298° |
| 2026-04-26 07:30 | 36.84598 | -4.44825 | 25027 ft | 354 kts | 300° |
| 2026-04-26 07:30 | 36.85774 | -4.47517 | 24685 ft | 352 kts | 300° |
| 2026-04-26 07:31 | 36.86948 | -4.50190 | 24342 ft | 350 kts | 300° |
| 2026-04-26 07:31 | 36.88108 | -4.52854 | 23994 ft | 348 kts | 300° |
| 2026-04-26 07:31 | 36.89255 | -4.55514 | 23633 ft | 348 kts | 299° |
| 2026-04-26 07:31 | 36.90394 | -4.58175 | 23212 ft | 347 kts | 299° |
| 2026-04-26 07:32 | 36.91521 | -4.60824 | 22839 ft | 345 kts | 299° |
| 2026-04-26 07:32 | 36.92641 | -4.63464 | 22476 ft | 343 kts | 299° |
| 2026-04-26 07:32 | 36.93737 | -4.66053 | 22124 ft | 341 kts | 299° |
| 2026-04-26 07:32 | 36.94839 | -4.68661 | 21775 ft | 339 kts | 299° |
| 2026-04-26 07:33 | 36.95936 | -4.71256 | 21433 ft | 337 kts | 299° |
| 2026-04-26 07:33 | 36.97027 | -4.73843 | 21087 ft | 335 kts | 299° |
| 2026-04-26 07:33 | 36.98112 | -4.76417 | 20735 ft | 334 kts | 299° |
| 2026-04-26 07:33 | 36.99192 | -4.78981 | 20402 ft | 333 kts | 299° |
| 2026-04-26 07:34 | 37.00270 | -4.81542 | 20054 ft | 332 kts | 299° |
| 2026-04-26 07:34 | 37.01341 | -4.84090 | 19715 ft | 331 kts | 299° |
| 2026-04-26 07:34 | 37.02396 | -4.86600 | 19379 ft | 330 kts | 299° |
| 2026-04-26 07:34 | 37.03464 | -4.89143 | 19036 ft | 330 kts | 299° |
| 2026-04-26 07:35 | 37.04531 | -4.91684 | 18693 ft | 330 kts | 299° |
| 2026-04-26 07:35 | 37.05559 | -4.94254 | 18311 ft | 331 kts | 292° |
| 2026-04-26 07:35 | 37.06209 | -4.97037 | 17795 ft | 335 kts | 284° |
| 2026-04-26 07:35 | 37.06707 | -4.99884 | 17419 ft | 334 kts | 283° |
| 2026-04-26 07:36 | 37.07175 | -5.02731 | 17060 ft | 333 kts | 283° |
| 2026-04-26 07:36 | 37.07643 | -5.05559 | 16703 ft | 331 kts | 283° |
| 2026-04-26 07:36 | 37.08111 | -5.08337 | 16366 ft | 330 kts | 283° |
| 2026-04-26 07:36 | 37.08593 | -5.11134 | 16025 ft | 328 kts | 283° |
| 2026-04-26 07:37 | 37.09079 | -5.13918 | 15687 ft | 326 kts | 283° |
| 2026-04-26 07:37 | 37.09566 | -5.16690 | 15350 ft | 325 kts | 283° |
| 2026-04-26 07:37 | 37.10053 | -5.19444 | 15017 ft | 324 kts | 284° |
| 2026-04-26 07:37 | 37.10539 | -5.22193 | 14685 ft | 323 kts | 284° |
| 2026-04-26 07:38 | 37.11024 | -5.24936 | 14353 ft | 322 kts | 284° |
| 2026-04-26 07:38 | 37.11507 | -5.27666 | 14022 ft | 321 kts | 284° |
| 2026-04-26 07:38 | 37.11981 | -5.30354 | 13645 ft | 321 kts | 284° |
| 2026-04-26 07:38 | 37.12462 | -5.33075 | 13286 ft | 319 kts | 284° |
| 2026-04-26 07:39 | 37.12939 | -5.35781 | 12946 ft | 318 kts | 284° |
| 2026-04-26 07:39 | 37.13415 | -5.38483 | 12602 ft | 316 kts | 283° |
| 2026-04-26 07:39 | 37.13887 | -5.41170 | 12267 ft | 315 kts | 283° |
| 2026-04-26 07:39 | 37.14357 | -5.43848 | 11925 ft | 314 kts | 283° |
| 2026-04-26 07:40 | 37.14824 | -5.46511 | 11604 ft | 312 kts | 283° |
| 2026-04-26 07:40 | 37.15286 | -5.49156 | 11282 ft | 311 kts | 283° |
| 2026-04-26 07:40 | 37.15742 | -5.51763 | 10958 ft | 310 kts | 283° |
| 2026-04-26 07:40 | 37.16203 | -5.54400 | 10629 ft | 309 kts | 283° |
| 2026-04-26 07:41 | 37.16661 | -5.57029 | 10306 ft | 308 kts | 283° |
| 2026-04-26 07:41 | 37.17114 | -5.59630 | 10136 ft | 302 kts | 283° |
| 2026-04-26 07:41 | 37.17559 | -5.62196 | 9829 ft | 301 kts | 283° |
| 2026-04-26 07:41 | 37.17998 | -5.64765 | 9489 ft | 301 kts | 283° |
| 2026-04-26 07:42 | 37.18433 | -5.67328 | 9166 ft | 300 kts | 283° |
| 2026-04-26 07:42 | 37.18864 | -5.69881 | 8841 ft | 299 kts | 283° |
| 2026-04-26 07:42 | 37.19287 | -5.72384 | 8541 ft | 297 kts | 283° |
| 2026-04-26 07:42 | 37.19714 | -5.74913 | 8231 ft | 295 kts | 283° |
| 2026-04-26 07:43 | 37.20137 | -5.77423 | 7952 ft | 293 kts | 283° |
| 2026-04-26 07:43 | 37.20557 | -5.79918 | 7636 ft | 292 kts | 283° |
| 2026-04-26 07:43 | 37.20975 | -5.82401 | 7335 ft | 290 kts | 282° |
| 2026-04-26 07:43 | 37.21392 | -5.84877 | 7034 ft | 289 kts | 282° |
| 2026-04-26 07:44 | 37.21805 | -5.87340 | 6718 ft | 289 kts | 282° |
| 2026-04-26 07:44 | 37.22217 | -5.89799 | 6411 ft | 288 kts | 282° |
| 2026-04-26 07:44 | 37.22623 | -5.92225 | 6095 ft | 287 kts | 282° |
| 2026-04-26 07:44 | 37.23031 | -5.94666 | 5785 ft | 286 kts | 282° |
| 2026-04-26 07:45 | 37.23438 | -5.97103 | 5486 ft | 284 kts | 282° |
| 2026-04-26 07:45 | 37.23843 | -5.99525 | 5194 ft | 283 kts | 282° |
| 2026-04-26 07:45 | 37.24244 | -6.01938 | 4898 ft | 282 kts | 282° |
| 2026-04-26 07:45 | 37.24644 | -6.04344 | 4541 ft | 283 kts | 282° |
| 2026-04-26 07:46 | 37.25140 | -6.06721 | 4228 ft | 280 kts | 296° |
| 2026-04-26 07:46 | 37.26314 | -6.08609 | 3960 ft | 273 kts | 326° |
| 2026-04-26 07:46 | 37.27944 | -6.09638 | 3908 ft | 256 kts | 349° |
| 2026-04-26 07:46 | 37.29640 | -6.09968 | 3818 ft | 245 kts | 356° |
| 2026-04-26 07:47 | 37.31309 | -6.10209 | 3721 ft | 238 kts | 356° |
| 2026-04-26 07:47 | 37.32928 | -6.10440 | 3614 ft | 231 kts | 356° |
| 2026-04-26 07:47 | 37.34506 | -6.10672 | 3434 ft | 228 kts | 356° |
| 2026-04-26 07:47 | 37.36076 | -6.10906 | 3212 ft | 227 kts | 356° |
| 2026-04-26 07:48 | 37.37644 | -6.11141 | 2983 ft | 226 kts | 356° |
| 2026-04-26 07:48 | 37.39186 | -6.11375 | 2779 ft | 220 kts | 356° |
| 2026-04-26 07:48 | 37.40692 | -6.11427 | 2501 ft | 214 kts | 18° |
| 2026-04-26 07:48 | 37.41809 | -6.10398 | 2267 ft | 201 kts | 63° |
| 2026-04-26 07:49 | 37.42011 | -6.08743 | 2142 ft | 188 kts | 94° |
| 2026-04-26 07:49 | 37.41937 | -6.07139 | 2030 ft | 179 kts | 93° |
| 2026-04-26 07:49 | 37.41882 | -6.05611 | 2009 ft | 173 kts | 91° |
| 2026-04-26 07:50 | 37.41767 | -6.02684 | 1849 ft | 166 kts | 91° |
| 2026-04-26 07:50 | 37.41761 | -6.01280 | 1653 ft | 155 kts | 90° |
| 2026-04-26 07:50 | 37.41764 | -5.99957 | 1461 ft | 148 kts | 89° |
| 2026-04-26 07:50 | 37.41767 | -5.98697 | 1287 ft | 145 kts | 89° |
| 2026-04-26 07:51 | 37.41770 | -5.97425 | 1081 ft | 143 kts | 88° |
| 2026-04-26 07:51 | 37.41774 | -5.96199 | 877 ft | 141 kts | 89° |
| 2026-04-26 07:51 | 37.41777 | -5.94972 | 712 ft | 141 kts | 88° |
| 2026-04-26 07:51 | 37.41777 | -5.93705 | 544 ft | 143 kts | 88° |
| 2026-04-26 07:52 | 37.41780 | -5.92475 | 349 ft | 143 kts | 88° |
| 2026-04-26 07:52 | 37.41786 | -5.91228 | 144 ft | 141 kts | 88° |
| 2026-04-26 07:52 | 37.41786 | -5.90063 | 99 ft | 115 kts | 88° |
| 2026-04-26 07:52 | 37.41796 | -5.89327 | 99 ft | 58 kts | 89° |
| 2026-04-26 07:53 | 37.41796 | -5.88862 | 103 ft | 25 kts | 90° |
| 2026-04-26 07:53 | 37.41827 | -5.88784 | 103 ft | 10 kts | 23° |
| 2026-04-26 07:53 | 37.41895 | -5.88762 | 103 ft | 10 kts | 11° |
| 2026-04-26 07:53 | 37.41962 | -5.88756 | 102 ft | 10 kts | 343° |
| 2026-04-26 07:54 | 37.41984 | -5.88829 | 102 ft | 9 kts | 270° |
| 2026-04-26 07:54 | 37.41983 | -5.88912 | 101 ft | 9 kts | 270° |
| 2026-04-26 07:54 | 37.41984 | -5.88994 | 100 ft | 9 kts | 271° |
| 2026-04-26 07:54 | 37.41984 | -5.89073 | 100 ft | 9 kts | 269° |
| 2026-04-26 07:55 | 37.41984 | -5.89157 | 99 ft | 10 kts | 270° |
| 2026-04-26 07:55 | 37.41984 | -5.89265 | 99 ft | 15 kts | 270° |
| 2026-04-26 07:55 | 37.41984 | -5.89409 | 99 ft | 17 kts | 270° |
| 2026-04-26 07:55 | 37.41984 | -5.89548 | 97 ft | 14 kts | 270° |
| 2026-04-26 07:56 | 37.41984 | -5.89672 | 96 ft | 14 kts | 269° |
| 2026-04-26 07:56 | 37.41982 | -5.89790 | 95 ft | 13 kts | 269° |
| 2026-04-26 07:56 | 37.41998 | -5.89876 | 95 ft | 10 kts | 311° |
| 2026-04-26 07:56 | 37.42048 | -5.89934 | 94 ft | 10 kts | 292° |
| 2026-04-26 07:57 | 37.42052 | -5.90013 | 93 ft | 5 kts | 270° |
| 2026-04-26 07:57 | 37.42053 | -5.90047 | 93 ft | 4 kts | 283° |
| 2026-04-26 07:57 | 37.42076 | -5.90059 | 93 ft | 4 kts | 1° |
| 2026-04-26 07:57 | 37.42101 | -5.90061 | 93 ft | 2 kts | 358° |
| 2026-04-26 07:58 | 37.42118 | -5.90063 | 94 ft | 2 kts | 353° |
| 2026-04-26 07:58 | 37.42122 | -5.90064 | 94 ft | 0 kts | 353° |